sensor_id;sensor_type;location;lat;lon;timestamp;P1;durP1;ratioP1;P2;durP2;ratioP2
54917;SDS011;40818;50.562;7.454;2023-03-01T00:01:03;7.35;;;1.80;;
54917;SDS011;40818;50.562;7.454;2023-03-01T00:11:08;9.65;;;1.30;;
54917;SDS011;40818;50.562;7.454;2023-03-01T00:21:19;8.13;;;1.80;;
54917;SDS011;40818;50.562;7.454;2023-03-01T00:31:27;8.23;;;1.60;;
54917;SDS011;40818;50.562;7.454;2023-03-01T00:41:35;11.38;;;2.38;;
54917;SDS011;40818;50.562;7.454;2023-03-01T00:51:40;7.20;;;1.58;;
54917;SDS011;40818;50.562;7.454;2023-03-01T01:01:46;7.35;;;2.05;;
54917;SDS011;40818;50.562;7.454;2023-03-01T01:11:50;9.73;;;1.45;;
54917;SDS011;40818;50.562;7.454;2023-03-01T01:21:56;9.82;;;1.92;;
54917;SDS011;40818;50.562;7.454;2023-03-01T01:32:00;5.95;;;2.05;;
54917;SDS011;40818;50.562;7.454;2023-03-01T01:42:08;6.25;;;1.50;;
54917;SDS011;40818;50.562;7.454;2023-03-01T01:52:17;14.13;;;1.98;;
54917;SDS011;40818;50.562;7.454;2023-03-01T02:02:26;9.60;;;2.20;;
54917;SDS011;40818;50.562;7.454;2023-03-01T02:12:30;6.97;;;2.35;;
54917;SDS011;40818;50.562;7.454;2023-03-01T02:22:36;8.25;;;2.40;;
54917;SDS011;40818;50.562;7.454;2023-03-01T02:32:44;13.65;;;2.63;;
54917;SDS011;40818;50.562;7.454;2023-03-01T02:42:49;10.80;;;2.58;;
54917;SDS011;40818;50.562;7.454;2023-03-01T02:53:00;7.30;;;2.03;;
54917;SDS011;40818;50.562;7.454;2023-03-01T03:03:07;12.60;;;2.47;;
54917;SDS011;40818;50.562;7.454;2023-03-01T03:13:14;9.25;;;2.38;;
54917;SDS011;40818;50.562;7.454;2023-03-01T03:23:19;7.60;;;2.58;;
54917;SDS011;40818;50.562;7.454;2023-03-01T03:33:26;14.95;;;2.63;;
54917;SDS011;40818;50.562;7.454;2023-03-01T03:43:30;7.32;;;2.38;;
54917;SDS011;40818;50.562;7.454;2023-03-01T03:53:38;7.68;;;2.03;;
54917;SDS011;40818;50.562;7.454;2023-03-01T04:03:41;15.82;;;3.92;;
54917;SDS011;40818;50.562;7.454;2023-03-01T04:13:49;15.10;;;3.35;;
54917;SDS011;40818;50.562;7.454;2023-03-01T04:23:53;12.90;;;2.53;;
54917;SDS011;40818;50.562;7.454;2023-03-01T04:33:59;10.52;;;2.60;;
54917;SDS011;40818;50.562;7.454;2023-03-01T04:44:03;13.68;;;2.95;;
54917;SDS011;40818;50.562;7.454;2023-03-01T04:54:09;7.35;;;2.47;;
54917;SDS011;40818;50.562;7.454;2023-03-01T05:04:12;9.40;;;2.35;;
54917;SDS011;40818;50.562;7.454;2023-03-01T05:14:18;8.30;;;2.13;;
54917;SDS011;40818;50.562;7.454;2023-03-01T05:24:22;9.55;;;2.22;;
54917;SDS011;40818;50.562;7.454;2023-03-01T05:34:28;12.93;;;2.70;;
54917;SDS011;40818;50.562;7.454;2023-03-01T05:44:32;8.38;;;1.85;;
54917;SDS011;40818;50.562;7.454;2023-03-01T05:54:38;10.27;;;1.95;;
54917;SDS011;40818;50.562;7.454;2023-03-01T06:04:42;11.57;;;3.15;;
54917;SDS011;40818;50.562;7.454;2023-03-01T06:14:48;12.52;;;2.85;;
54917;SDS011;40818;50.562;7.454;2023-03-01T06:24:51;29.17;;;5.20;;
54917;SDS011;40818;50.562;7.454;2023-03-01T06:34:57;11.30;;;3.17;;
54917;SDS011;40818;50.562;7.454;2023-03-01T06:45:01;18.83;;;3.22;;
54917;SDS011;40818;50.562;7.454;2023-03-01T06:55:07;17.98;;;2.80;;
54917;SDS011;40818;50.562;7.454;2023-03-01T07:05:11;10.10;;;3.33;;
54917;SDS011;40818;50.562;7.454;2023-03-01T07:15:17;10.70;;;3.35;;
54917;SDS011;40818;50.562;7.454;2023-03-01T07:25:21;10.13;;;3.00;;
54917;SDS011;40818;50.562;7.454;2023-03-01T07:35:27;12.32;;;3.45;;
54917;SDS011;40818;50.562;7.454;2023-03-01T07:45:32;9.18;;;3.38;;
54917;SDS011;40818;50.562;7.454;2023-03-01T07:55:38;12.40;;;3.97;;
54917;SDS011;40818;50.562;7.454;2023-03-01T08:05:41;14.13;;;3.63;;
54917;SDS011;40818;50.562;7.454;2023-03-01T08:15:47;16.52;;;4.88;;
54917;SDS011;40818;50.562;7.454;2023-03-01T08:25:51;13.98;;;5.30;;
54917;SDS011;40818;50.562;7.454;2023-03-01T08:36:05;10.45;;;3.58;;
54917;SDS011;40818;50.562;7.454;2023-03-01T08:46:09;12.70;;;4.00;;
54917;SDS011;40818;50.562;7.454;2023-03-01T08:56:15;14.73;;;3.28;;
54917;SDS011;40818;50.562;7.454;2023-03-01T09:06:21;10.00;;;3.80;;
54917;SDS011;40818;50.562;7.454;2023-03-01T09:16:27;14.40;;;4.68;;
54917;SDS011;40818;50.562;7.454;2023-03-01T09:26:35;18.10;;;3.93;;
54917;SDS011;40818;50.562;7.454;2023-03-01T09:36:41;14.90;;;5.15;;
54917;SDS011;40818;50.562;7.454;2023-03-01T09:46:45;12.73;;;3.65;;
54917;SDS011;40818;50.562;7.454;2023-03-01T09:56:56;17.48;;;4.57;;
54917;SDS011;40818;50.562;7.454;2023-03-01T10:07:14;13.43;;;4.25;;
54917;SDS011;40818;50.562;7.454;2023-03-01T10:17:30;10.82;;;4.15;;
54917;SDS011;40818;50.562;7.454;2023-03-01T10:27:40;12.30;;;4.05;;
54917;SDS011;40818;50.562;7.454;2023-03-01T10:38:02;9.52;;;4.13;;
54917;SDS011;40818;50.562;7.454;2023-03-01T10:48:13;13.07;;;4.35;;
54917;SDS011;40818;50.562;7.454;2023-03-01T10:58:22;8.75;;;3.70;;
54917;SDS011;40818;50.562;7.454;2023-03-01T11:08:29;11.60;;;4.15;;
54917;SDS011;40818;50.562;7.454;2023-03-01T11:18:39;8.83;;;3.27;;
54917;SDS011;40818;50.562;7.454;2023-03-01T11:28:43;6.78;;;2.97;;
54917;SDS011;40818;50.562;7.454;2023-03-01T11:38:57;7.30;;;3.10;;
54917;SDS011;40818;50.562;7.454;2023-03-01T11:49:25;7.63;;;2.72;;
54917;SDS011;40818;50.562;7.454;2023-03-01T11:59:58;7.32;;;2.83;;
54917;SDS011;40818;50.562;7.454;2023-03-01T12:10:19;5.93;;;2.25;;
54917;SDS011;40818;50.562;7.454;2023-03-01T12:20:30;5.18;;;2.13;;
54917;SDS011;40818;50.562;7.454;2023-03-01T12:30:42;8.18;;;2.50;;
54917;SDS011;40818;50.562;7.454;2023-03-01T12:41:11;4.75;;;1.90;;
54917;SDS011;40818;50.562;7.454;2023-03-01T12:51:38;6.88;;;1.60;;
54917;SDS011;40818;50.562;7.454;2023-03-01T13:01:45;5.97;;;2.05;;
54917;SDS011;40818;50.562;7.454;2023-03-01T13:11:55;5.40;;;1.58;;
54917;SDS011;40818;50.562;7.454;2023-03-01T13:22:25;5.55;;;1.45;;
54917;SDS011;40818;50.562;7.454;2023-03-01T13:32:33;5.28;;;1.20;;
54917;SDS011;40818;50.562;7.454;2023-03-01T13:42:40;4.85;;;1.30;;
54917;SDS011;40818;50.562;7.454;2023-03-01T13:52:49;5.38;;;1.10;;
54917;SDS011;40818;50.562;7.454;2023-03-01T14:03:01;5.25;;;1.00;;
54917;SDS011;40818;50.562;7.454;2023-03-01T14:13:12;6.05;;;1.00;;
54917;SDS011;40818;50.562;7.454;2023-03-01T14:23:30;3.45;;;0.85;;
54917;SDS011;40818;50.562;7.454;2023-03-01T14:33:38;4.68;;;0.82;;
54917;SDS011;40818;50.562;7.454;2023-03-01T14:43:44;3.95;;;0.80;;
54917;SDS011;40818;50.562;7.454;2023-03-01T14:53:51;3.00;;;0.90;;
54917;SDS011;40818;50.562;7.454;2023-03-01T15:03:55;8.60;;;0.85;;
54917;SDS011;40818;50.562;7.454;2023-03-01T15:14:05;4.28;;;0.70;;
54917;SDS011;40818;50.562;7.454;2023-03-01T15:24:31;5.18;;;0.70;;
54917;SDS011;40818;50.562;7.454;2023-03-01T15:34:39;3.70;;;0.63;;
54917;SDS011;40818;50.562;7.454;2023-03-01T15:44:42;3.28;;;0.90;;
54917;SDS011;40818;50.562;7.454;2023-03-01T15:54:48;4.65;;;1.08;;
54917;SDS011;40818;50.562;7.454;2023-03-01T16:04:52;3.33;;;0.80;;
54917;SDS011;40818;50.562;7.454;2023-03-01T16:14:59;3.53;;;0.68;;
54917;SDS011;40818;50.562;7.454;2023-03-01T16:25:02;4.50;;;0.60;;
54917;SDS011;40818;50.562;7.454;2023-03-01T16:35:12;2.78;;;0.70;;
54917;SDS011;40818;50.562;7.454;2023-03-01T16:45:18;3.33;;;0.70;;
54917;SDS011;40818;50.562;7.454;2023-03-01T16:55:24;2.88;;;0.60;;
54917;SDS011;40818;50.562;7.454;2023-03-01T17:05:28;3.40;;;0.80;;
54917;SDS011;40818;50.562;7.454;2023-03-01T17:15:34;2.25;;;0.70;;
54917;SDS011;40818;50.562;7.454;2023-03-01T17:25:40;4.43;;;0.90;;
54917;SDS011;40818;50.562;7.454;2023-03-01T17:35:48;5.38;;;0.93;;
54917;SDS011;40818;50.562;7.454;2023-03-01T17:45:52;7.70;;;1.00;;
54917;SDS011;40818;50.562;7.454;2023-03-01T20:25:03;9.18;;;1.10;;
54917;SDS011;40818;50.562;7.454;2023-03-01T20:35:08;6.90;;;1.30;;
54917;SDS011;40818;50.562;7.454;2023-03-01T20:45:15;3.17;;;0.80;;
54917;SDS011;40818;50.562;7.454;2023-03-01T20:55:18;4.90;;;1.10;;
54917;SDS011;40818;50.562;7.454;2023-03-01T21:05:24;5.97;;;0.90;;
54917;SDS011;40818;50.562;7.454;2023-03-01T21:15:28;4.43;;;0.90;;
54917;SDS011;40818;50.562;7.454;2023-03-01T21:25:34;4.88;;;0.90;;
54917;SDS011;40818;50.562;7.454;2023-03-01T21:35:37;4.95;;;1.00;;
54917;SDS011;40818;50.562;7.454;2023-03-01T21:45:43;4.15;;;0.98;;
54917;SDS011;40818;50.562;7.454;2023-03-01T21:55:47;4.03;;;0.98;;
54917;SDS011;40818;50.562;7.454;2023-03-01T22:05:57;5.88;;;1.10;;
54917;SDS011;40818;50.562;7.454;2023-03-01T22:16:01;8.80;;;1.02;;
54917;SDS011;40818;50.562;7.454;2023-03-01T22:26:07;4.75;;;1.10;;
54917;SDS011;40818;50.562;7.454;2023-03-01T22:36:21;4.28;;;0.90;;
54917;SDS011;40818;50.562;7.454;2023-03-01T22:46:28;8.57;;;1.13;;
54917;SDS011;40818;50.562;7.454;2023-03-01T22:56:33;10.77;;;1.08;;
54917;SDS011;40818;50.562;7.454;2023-03-01T23:06:40;4.97;;;0.95;;
54917;SDS011;40818;50.562;7.454;2023-03-01T23:16:55;4.68;;;0.90;;
54917;SDS011;40818;50.562;7.454;2023-03-01T23:27:03;5.60;;;1.25;;
54917;SDS011;40818;50.562;7.454;2023-03-01T23:37:06;7.18;;;1.23;;
54917;SDS011;40818;50.562;7.454;2023-03-01T23:47:12;5.00;;;0.90;;
54917;SDS011;40818;50.562;7.454;2023-03-01T23:57:16;5.25;;;1.10;;
